sensor_id;sensor_type;location;lat;lon;timestamp;pressure;altitude;pressure_sealevel;temperature;humidity
72414;BME280;60995;52.154;4.498;2024-02-21T00:01:58;102168.66;;;10.49;100.00
72414;BME280;60995;52.154;4.498;2024-02-21T00:04:14;102179.13;;;10.55;100.00
72414;BME280;60995;52.154;4.498;2024-02-21T00:06:32;102168.88;;;10.46;100.00
72414;BME280;60995;52.154;4.498;2024-02-21T00:08:48;102166.06;;;10.48;100.00
72414;BME280;60995;52.154;4.498;2024-02-21T00:11:04;102152.38;;;10.49;100.00
72414;BME280;60995;52.154;4.498;2024-02-21T00:13:21;102148.50;;;10.53;100.00
72414;BME280;60995;52.154;4.498;2024-02-21T00:15:37;102151.41;;;10.50;100.00
72414;BME280;60995;52.154;4.498;2024-02-21T00:17:54;102153.47;;;10.47;100.00
72414;BME280;60995;52.154;4.498;2024-02-21T00:20:10;102146.72;;;10.39;100.00
72414;BME280;60995;52.154;4.498;2024-02-21T00:22:27;102156.09;;;10.48;100.00
72414;BME280;60995;52.154;4.498;2024-02-21T00:24:47;102171.31;;;10.51;100.00
72414;BME280;60995;52.154;4.498;2024-02-21T00:27:03;102171.09;;;10.54;100.00
72414;BME280;60995;52.154;4.498;2024-02-21T00:29:20;102166.28;;;10.45;100.00
72414;BME280;60995;52.154;4.498;2024-02-21T00:31:36;102159.88;;;10.46;100.00
72414;BME280;60995;52.154;4.498;2024-02-21T00:33:53;102161.19;;;10.53;100.00
72414;BME280;60995;52.154;4.498;2024-02-21T00:36:09;102164.97;;;10.50;100.00
72414;BME280;60995;52.154;4.498;2024-02-21T00:38:26;102160.22;;;10.54;100.00
72414;BME280;60995;52.154;4.498;2024-02-21T00:40:42;102156.94;;;10.49;100.00
72414;BME280;60995;52.154;4.498;2024-02-21T00:42:58;102148.03;;;10.47;100.00
72414;BME280;60995;52.154;4.498;2024-02-21T00:45:15;102144.56;;;10.45;100.00
72414;BME280;60995;52.154;4.498;2024-02-21T00:47:31;102149.34;;;10.41;100.00
72414;BME280;60995;52.154;4.498;2024-02-21T00:49:48;102151.53;;;10.49;100.00
72414;BME280;60995;52.154;4.498;2024-02-21T00:52:04;102147.91;;;10.35;100.00
72414;BME280;60995;52.154;4.498;2024-02-21T00:54:20;102146.72;;;10.39;100.00
72414;BME280;60995;52.154;4.498;2024-02-21T00:56:36;102146.91;;;10.36;100.00
72414;BME280;60995;52.154;4.498;2024-02-21T00:58:53;102140.34;;;10.40;100.00
72414;BME280;60995;52.154;4.498;2024-02-21T01:01:09;102133.16;;;10.39;100.00
72414;BME280;60995;52.154;4.498;2024-02-21T01:03:26;102135.03;;;10.52;100.00
72414;BME280;60995;52.154;4.498;2024-02-21T01:05:42;102129.50;;;10.53;100.00
72414;BME280;60995;52.154;4.498;2024-02-21T01:07:59;102139.16;;;10.45;100.00
72414;BME280;60995;52.154;4.498;2024-02-21T01:10:15;102138.75;;;10.51;100.00
72414;BME280;60995;52.154;4.498;2024-02-21T01:12:32;102143.16;;;10.52;100.00
72414;BME280;60995;52.154;4.498;2024-02-21T01:14:49;102137.66;;;10.66;100.00
72414;BME280;60995;52.154;4.498;2024-02-21T01:17:05;102134.38;;;10.61;100.00
72414;BME280;60995;52.154;4.498;2024-02-21T01:19:22;102132.22;;;10.66;100.00
72414;BME280;60995;52.154;4.498;2024-02-21T01:21:38;102122.25;;;10.67;100.00
72414;BME280;60995;52.154;4.498;2024-02-21T01:23:56;102128.75;;;10.64;100.00
72414;BME280;60995;52.154;4.498;2024-02-21T01:26:13;102118.75;;;10.52;100.00
72414;BME280;60995;52.154;4.498;2024-02-21T01:28:31;102119.66;;;10.65;100.00
72414;BME280;60995;52.154;4.498;2024-02-21T01:30:47;102102.69;;;10.49;100.00
72414;BME280;60995;52.154;4.498;2024-02-21T01:33:04;102103.78;;;10.59;100.00
72414;BME280;60995;52.154;4.498;2024-02-21T01:35:22;102113.13;;;10.55;100.00
72414;BME280;60995;52.154;4.498;2024-02-21T01:37:38;102109.63;;;10.53;100.00
72414;BME280;60995;52.154;4.498;2024-02-21T01:39:54;102115.31;;;10.63;100.00
72414;BME280;60995;52.154;4.498;2024-02-21T01:42:11;102114.09;;;10.54;100.00
72414;BME280;60995;52.154;4.498;2024-02-21T01:44:27;102124.63;;;10.71;100.00
72414;BME280;60995;52.154;4.498;2024-02-21T01:46:43;102130.59;;;10.76;100.00
72414;BME280;60995;52.154;4.498;2024-02-21T01:49:00;102119.66;;;10.65;100.00
72414;BME280;60995;52.154;4.498;2024-02-21T01:51:17;102121.06;;;10.71;100.00
72414;BME280;60995;52.154;4.498;2024-02-21T01:53:36;102111.28;;;10.68;100.00
72414;BME280;60995;52.154;4.498;2024-02-21T01:55:56;102112.25;;;10.67;100.00
72414;BME280;60995;52.154;4.498;2024-02-21T01:58:13;102093.25;;;10.67;100.00
72414;BME280;60995;52.154;4.498;2024-02-21T02:00:32;102097.28;;;10.74;100.00
72414;BME280;60995;52.154;4.498;2024-02-21T02:02:49;102093.13;;;10.69;100.00
72414;BME280;60995;52.154;4.498;2024-02-21T02:05:08;102103.81;;;10.72;100.00
72414;BME280;60995;52.154;4.498;2024-02-21T02:07:26;102092.41;;;10.67;100.00
72414;BME280;60995;52.154;4.498;2024-02-21T02:09:43;102096.19;;;10.64;100.00
72414;BME280;60995;52.154;4.498;2024-02-21T02:12:00;102100.97;;;10.61;100.00
72414;BME280;60995;52.154;4.498;2024-02-21T02:14:17;102085.34;;;10.64;100.00
72414;BME280;60995;52.154;4.498;2024-02-21T02:16:34;102089.03;;;10.76;100.00
72414;BME280;60995;52.154;4.498;2024-02-21T02:18:50;102085.75;;;10.58;100.00
72414;BME280;60995;52.154;4.498;2024-02-21T02:21:11;102084.56;;;10.62;100.00
72414;BME280;60995;52.154;4.498;2024-02-21T02:23:38;102074.38;;;10.66;100.00
72414;BME280;60995;52.154;4.498;2024-02-21T02:25:55;102088.38;;;10.85;100.00
72414;BME280;60995;52.154;4.498;2024-02-21T02:28:12;102086.44;;;10.74;100.00
72414;BME280;60995;52.154;4.498;2024-02-21T02:30:28;102076.66;;;10.72;100.00
72414;BME280;60995;52.154;4.498;2024-02-21T02:32:45;102069.25;;;10.61;100.00
72414;BME280;60995;52.154;4.498;2024-02-21T02:35:02;102061.22;;;10.72;100.00
72414;BME280;60995;52.154;4.498;2024-02-21T02:37:19;102067.19;;;10.65;100.00
72414;BME280;60995;52.154;4.498;2024-02-21T02:39:35;102058.84;;;10.55;100.00
72414;BME280;60995;52.154;4.498;2024-02-21T02:41:51;102061.88;;;10.63;100.00
72414;BME280;60995;52.154;4.498;2024-02-21T02:44:07;102050.25;;;10.61;100.00
72414;BME280;60995;52.154;4.498;2024-02-21T02:46:24;102057.84;;;10.69;100.00
72414;BME280;60995;52.154;4.498;2024-02-21T02:48:40;102049.50;;;10.59;100.00
72414;BME280;60995;52.154;4.498;2024-02-21T02:50:56;102047.75;;;10.58;100.00
72414;BME280;60995;52.154;4.498;2024-02-21T02:53:13;102053.06;;;10.72;100.00
72414;BME280;60995;52.154;4.498;2024-02-21T02:55:29;102043.84;;;10.62;100.00
72414;BME280;60995;52.154;4.498;2024-02-21T02:57:45;102039.72;;;10.69;100.00
72414;BME280;60995;52.154;4.498;2024-02-21T03:00:02;102034.72;;;10.63;100.00
72414;BME280;60995;52.154;4.498;2024-02-21T03:02:19;102026.03;;;10.58;100.00
72414;BME280;60995;52.154;4.498;2024-02-21T03:04:39;102011.28;;;10.49;100.00
72414;BME280;60995;52.154;4.498;2024-02-21T03:06:56;102023.44;;;10.56;100.00
72414;BME280;60995;52.154;4.498;2024-02-21T03:09:13;102022.13;;;10.62;100.00
72414;BME280;60995;52.154;4.498;2024-02-21T03:11:31;102030.94;;;10.66;100.00
72414;BME280;60995;52.154;4.498;2024-02-21T03:13:48;102021.72;;;10.68;100.00
72414;BME280;60995;52.154;4.498;2024-02-21T03:16:04;102014.53;;;10.67;100.00
72414;BME280;60995;52.154;4.498;2024-02-21T03:18:21;101999.22;;;10.66;100.00
72414;BME280;60995;52.154;4.498;2024-02-21T03:20:37;102008.03;;;10.70;100.00
72414;BME280;60995;52.154;4.498;2024-02-21T03:22:54;101998.69;;;10.61;100.00
72414;BME280;60995;52.154;4.498;2024-02-21T03:25:10;102005.66;;;10.65;100.00
72414;BME280;60995;52.154;4.498;2024-02-21T03:27:27;102009.31;;;10.77;100.00
72414;BME280;60995;52.154;4.498;2024-02-21T03:29:43;102002.59;;;10.57;100.00
72414;BME280;60995;52.154;4.498;2024-02-21T03:32:00;102015.72;;;10.76;100.00
72414;BME280;60995;52.154;4.498;2024-02-21T03:34:16;101994.03;;;10.63;100.00
72414;BME280;60995;52.154;4.498;2024-02-21T03:36:32;101979.25;;;10.54;100.00
72414;BME280;60995;52.154;4.498;2024-02-21T03:38:48;101976.53;;;10.67;100.00
72414;BME280;60995;52.154;4.498;2024-02-21T03:41:05;101982.84;;;10.68;100.00
72414;BME280;60995;52.154;4.498;2024-02-21T03:43:21;101991.72;;;10.70;100.00
72414;BME280;60995;52.154;4.498;2024-02-21T03:45:37;101987.38;;;10.67;100.00
72414;BME280;60995;52.154;4.498;2024-02-21T03:47:54;101981.84;;;10.69;100.00
72414;BME280;60995;52.154;4.498;2024-02-21T03:50:12;101984.47;;;10.70;100.00
72414;BME280;60995;52.154;4.498;2024-02-21T03:52:28;101976.97;;;10.61;100.00
72414;BME280;60995;52.154;4.498;2024-02-21T03:54:46;101973.28;;;10.62;100.00
72414;BME280;60995;52.154;4.498;2024-02-21T03:57:04;101976.94;;;10.74;100.00
72414;BME280;60995;52.154;4.498;2024-02-21T03:59:22;101976.94;;;10.74;100.00
72414;BME280;60995;52.154;4.498;2024-02-21T04:01:38;101977.31;;;10.69;100.00
72414;BME280;60995;52.154;4.498;2024-02-21T04:03:55;101966.75;;;10.65;100.00
72414;BME280;60995;52.154;4.498;2024-02-21T04:06:12;101961.34;;;10.52;100.00
72414;BME280;60995;52.154;4.498;2024-02-21T04:08:28;101967.66;;;10.65;100.00
72414;BME280;60995;52.154;4.498;2024-02-21T04:10:44;101980.56;;;10.74;100.00
72414;BME280;60995;52.154;4.498;2024-02-21T04:13:00;101976.09;;;10.73;100.00
72414;BME280;60995;52.154;4.498;2024-02-21T04:15:17;101975.44;;;10.70;100.00
72414;BME280;60995;52.154;4.498;2024-02-21T04:17:33;101979.03;;;10.70;100.00
72414;BME280;60995;52.154;4.498;2024-02-21T04:19:50;101971.34;;;10.64;100.00
72414;BME280;60995;52.154;4.498;2024-02-21T04:22:17;101971.63;;;10.72;100.00
72414;BME280;60995;52.154;4.498;2024-02-21T04:24:33;101965.91;;;10.64;100.00
72414;BME280;60995;52.154;4.498;2024-02-21T04:26:51;101957.22;;;10.59;100.00
72414;BME280;60995;52.154;4.498;2024-02-21T04:29:07;101940.09;;;10.46;100.00
72414;BME280;60995;52.154;4.498;2024-02-21T04:31:24;101957.88;;;10.63;100.00
72414;BME280;60995;52.154;4.498;2024-02-21T04:33:40;101955.25;;;10.61;100.00
72414;BME280;60995;52.154;4.498;2024-02-21T04:35:56;101939.75;;;10.50;100.00
72414;BME280;60995;52.154;4.498;2024-02-21T04:38:14;101935.94;;;10.53;100.00
72414;BME280;60995;52.154;4.498;2024-02-21T04:40:30;101936.50;;;10.58;100.00
72414;BME280;60995;52.154;4.498;2024-02-21T04:42:47;101932.56;;;10.62;100.00
72414;BME280;60995;52.154;4.498;2024-02-21T04:45:04;101943.53;;;10.73;100.00
72414;BME280;60995;52.154;4.498;2024-02-21T04:47:20;101931.81;;;10.60;100.00
72414;BME280;60995;52.154;4.498;2024-02-21T04:49:36;101919.66;;;10.53;100.00
72414;BME280;60995;52.154;4.498;2024-02-21T04:51:53;101930.09;;;10.59;100.00
72414;BME280;60995;52.154;4.498;2024-02-21T04:54:09;101927.59;;;10.56;100.00
72414;BME280;60995;52.154;4.498;2024-02-21T04:56:25;101924.00;;;10.68;100.00
72414;BME280;60995;52.154;4.498;2024-02-21T04:58:41;101912.28;;;10.55;100.00
72414;BME280;60995;52.154;4.498;2024-02-21T05:00:58;101917.72;;;10.68;100.00
72414;BME280;60995;52.154;4.498;2024-02-21T05:03:14;101916.63;;;10.70;100.00
72414;BME280;60995;52.154;4.498;2024-02-21T05:05:31;101908.13;;;10.62;100.00
72414;BME280;60995;52.154;4.498;2024-02-21T05:07:47;101890.34;;;10.58;100.00
72414;BME280;60995;52.154;4.498;2024-02-21T05:10:04;101896.00;;;10.68;100.00
72414;BME280;60995;52.154;4.498;2024-02-21T05:12:20;101893.34;;;10.66;100.00
72414;BME280;60995;52.154;4.498;2024-02-21T05:14:36;101880.25;;;10.60;100.00
72414;BME280;60995;52.154;4.498;2024-02-21T05:16:53;101889.91;;;10.64;100.00
72414;BME280;60995;52.154;4.498;2024-02-21T05:19:09;101890.56;;;10.68;100.00
72414;BME280;60995;52.154;4.498;2024-02-21T05:21:26;101871.72;;;10.53;100.00
72414;BME280;60995;52.154;4.498;2024-02-21T05:23:44;101865.81;;;10.59;100.00
72414;BME280;60995;52.154;4.498;2024-02-21T05:26:00;101870.63;;;10.56;100.00
72414;BME280;60995;52.154;4.498;2024-02-21T05:28:19;101865.19;;;10.56;100.00
72414;BME280;60995;52.154;4.498;2024-02-21T05:30:36;101847.06;;;10.43;100.00
72414;BME280;60995;52.154;4.498;2024-02-21T05:32:52;101852.81;;;10.39;100.00
72414;BME280;60995;52.154;4.498;2024-02-21T05:35:08;101837.19;;;10.30;100.00
72414;BME280;60995;52.154;4.498;2024-02-21T05:37:25;101827.66;;;10.24;100.00
72414;BME280;60995;52.154;4.498;2024-02-21T05:39:41;101825.59;;;10.27;100.00
72414;BME280;60995;52.154;4.498;2024-02-21T05:41:57;101805.56;;;10.04;100.00
72414;BME280;60995;52.154;4.498;2024-02-21T05:44:14;101798.69;;;10.12;100.00
72414;BME280;60995;52.154;4.498;2024-02-21T05:46:30;101803.47;;;10.21;100.00
72414;BME280;60995;52.154;4.498;2024-02-21T05:48:46;101802.72;;;10.19;100.00
72414;BME280;60995;52.154;4.498;2024-02-21T05:51:03;101796.63;;;10.15;100.00
72414;BME280;60995;52.154;4.498;2024-02-21T05:53:19;101791.44;;;10.12;100.00
72414;BME280;60995;52.154;4.498;2024-02-21T05:55:36;101798.25;;;10.18;100.00
72414;BME280;60995;52.154;4.498;2024-02-21T05:57:55;101789.59;;;10.13;100.00
72414;BME280;60995;52.154;4.498;2024-02-21T06:00:12;101796.97;;;10.23;100.00
72414;BME280;60995;52.154;4.498;2024-02-21T06:02:29;101782.97;;;10.17;100.00
72414;BME280;60995;52.154;4.498;2024-02-21T06:04:45;101790.56;;;10.12;100.00
72414;BME280;60995;52.154;4.498;2024-02-21T06:07:02;101783.63;;;10.07;100.00
72414;BME280;60995;52.154;4.498;2024-02-21T06:09:18;101788.59;;;10.26;100.00
72414;BME280;60995;52.154;4.498;2024-02-21T06:11:35;101809.19;;;10.29;100.00
72414;BME280;60995;52.154;4.498;2024-02-21T06:13:55;101799.13;;;10.31;100.00
72414;BME280;60995;52.154;4.498;2024-02-21T06:16:12;101810.59;;;10.35;100.00
72414;BME280;60995;52.154;4.498;2024-02-21T06:18:29;101800.28;;;10.27;100.00
72414;BME280;60995;52.154;4.498;2024-02-21T06:20:47;101820.06;;;10.42;100.00
72414;BME280;60995;52.154;4.498;2024-02-21T06:23:03;101807.59;;;10.26;100.00
72414;BME280;60995;52.154;4.498;2024-02-21T06:25:19;101808.91;;;10.21;100.00
72414;BME280;60995;52.154;4.498;2024-02-21T06:27:36;101831.56;;;10.46;100.00
72414;BME280;60995;52.154;4.498;2024-02-21T06:29:53;101831.22;;;10.37;100.00
72414;BME280;60995;52.154;4.498;2024-02-21T06:32:09;101820.38;;;10.37;100.00
72414;BME280;60995;52.154;4.498;2024-02-21T06:34:25;101807.16;;;10.20;100.00
72414;BME280;60995;52.154;4.498;2024-02-21T06:36:44;101801.94;;;10.17;100.00
72414;BME280;60995;52.154;4.498;2024-02-21T06:39:01;101800.53;;;10.24;100.00
72414;BME280;60995;52.154;4.498;2024-02-21T06:41:18;101803.38;;;10.35;100.00
72414;BME280;60995;52.154;4.498;2024-02-21T06:43:35;101787.41;;;10.18;100.00
72414;BME280;60995;52.154;4.498;2024-02-21T06:45:51;101793.16;;;10.26;100.00
72414;BME280;60995;52.154;4.498;2024-02-21T06:48:08;101802.56;;;10.33;100.00
72414;BME280;60995;52.154;4.498;2024-02-21T06:50:24;101779.06;;;10.21;100.00
72414;BME280;60995;52.154;4.498;2024-02-21T06:52:40;101763.25;;;10.15;100.00
72414;BME280;60995;52.154;4.498;2024-02-21T06:54:58;101761.72;;;10.10;100.00
72414;BME280;60995;52.154;4.498;2024-02-21T06:57:14;101759.31;;;10.19;100.00
72414;BME280;60995;52.154;4.498;2024-02-21T06:59:33;101750.13;;;10.08;100.00
72414;BME280;60995;52.154;4.498;2024-02-21T07:01:54;101765.16;;;10.25;100.00
72414;BME280;60995;52.154;4.498;2024-02-21T07:04:13;101766.34;;;10.34;100.00
72414;BME280;60995;52.154;4.498;2024-02-21T07:06:29;101753.78;;;10.20;100.00
72414;BME280;60995;52.154;4.498;2024-02-21T07:08:47;101749.56;;;10.16;100.00
72414;BME280;60995;52.154;4.498;2024-02-21T07:11:03;101749.31;;;10.19;100.00
72414;BME280;60995;52.154;4.498;2024-02-21T07:13:20;101760.69;;;10.37;100.00
72414;BME280;60995;52.154;4.498;2024-02-21T07:15:37;101750.50;;;10.28;100.00
72414;BME280;60995;52.154;4.498;2024-02-21T07:17:53;101725.94;;;10.05;100.00
72414;BME280;60995;52.154;4.498;2024-02-21T07:20:10;101736.00;;;10.16;100.00
72414;BME280;60995;52.154;4.498;2024-02-21T07:22:26;101732.84;;;10.22;100.00
72414;BME280;60995;52.154;4.498;2024-02-21T07:24:43;101723.72;;;10.23;100.00
72414;BME280;60995;52.154;4.498;2024-02-21T07:26:59;101719.50;;;10.19;100.00
72414;BME280;60995;52.154;4.498;2024-02-21T07:29:20;101721.34;;;10.19;100.00
72414;BME280;60995;52.154;4.498;2024-02-21T07:31:43;101716.56;;;10.22;100.00
72414;BME280;60995;52.154;4.498;2024-02-21T07:33:59;101700.66;;;10.05;100.00
72414;BME280;60995;52.154;4.498;2024-02-21T07:36:28;101704.09;;;10.20;100.00
72414;BME280;60995;52.154;4.498;2024-02-21T07:38:46;101711.28;;;10.21;100.00
72414;BME280;60995;52.154;4.498;2024-02-21T07:41:02;101724.13;;;10.30;100.00
72414;BME280;60995;52.154;4.498;2024-02-21T07:43:20;101710.19;;;10.23;100.00
72414;BME280;60995;52.154;4.498;2024-02-21T07:45:38;101703.56;;;10.15;100.00
72414;BME280;60995;52.154;4.498;2024-02-21T07:47:55;101712.50;;;10.41;100.00
72414;BME280;60995;52.154;4.498;2024-02-21T07:50:11;101712.38;;;10.42;100.00
72414;BME280;60995;52.154;4.498;2024-02-21T07:52:27;101699.81;;;10.41;100.00
72414;BME280;60995;52.154;4.498;2024-02-21T07:54:44;101708.47;;;10.47;100.00
72414;BME280;60995;52.154;4.498;2024-02-21T07:57:00;101698.09;;;10.40;100.00
72414;BME280;60995;52.154;4.498;2024-02-21T07:59:16;101706.97;;;10.42;100.00
72414;BME280;60995;52.154;4.498;2024-02-21T08:01:33;101714.41;;;10.52;100.00
72414;BME280;60995;52.154;4.498;2024-02-21T08:03:50;101705.00;;;10.45;100.00
72414;BME280;60995;52.154;4.498;2024-02-21T08:06:12;101706.06;;;10.55;100.00
72414;BME280;60995;52.154;4.498;2024-02-21T08:08:28;101701.88;;;10.62;100.00
72414;BME280;60995;52.154;4.498;2024-02-21T08:10:45;101696.31;;;10.52;100.00
72414;BME280;60995;52.154;4.498;2024-02-21T08:13:02;101685.78;;;10.48;100.00
72414;BME280;60995;52.154;4.498;2024-02-21T08:15:18;101686.69;;;10.59;100.00
72414;BME280;60995;52.154;4.498;2024-02-21T08:17:34;101691.53;;;10.67;100.00
72414;BME280;60995;52.154;4.498;2024-02-21T08:19:51;101697.34;;;10.74;100.00
72414;BME280;60995;52.154;4.498;2024-02-21T08:22:07;101694.06;;;10.82;100.00
72414;BME280;60995;52.154;4.498;2024-02-21T08:24:23;101686.09;;;10.67;100.00
72414;BME280;60995;52.154;4.498;2024-02-21T08:26:43;101688.13;;;10.76;100.00
72414;BME280;60995;52.154;4.498;2024-02-21T08:29:03;101684.41;;;10.78;100.00
72414;BME280;60995;52.154;4.498;2024-02-21T08:31:19;101684.94;;;10.83;100.00
72414;BME280;60995;52.154;4.498;2024-02-21T08:33:36;101673.81;;;10.74;100.00
72414;BME280;60995;52.154;4.498;2024-02-21T08:35:52;101652.50;;;10.46;100.00
72414;BME280;60995;52.154;4.498;2024-02-21T08:38:10;101655.28;;;10.44;100.00
72414;BME280;60995;52.154;4.498;2024-02-21T08:40:28;101631.28;;;10.26;100.00
72414;BME280;60995;52.154;4.498;2024-02-21T08:42:44;101661.75;;;10.54;100.00
72414;BME280;60995;52.154;4.498;2024-02-21T08:45:02;101652.81;;;10.41;100.00
72414;BME280;60995;52.154;4.498;2024-02-21T08:47:19;101653.53;;;10.56;100.00
72414;BME280;60995;52.154;4.498;2024-02-21T08:49:35;101651.78;;;10.55;100.00
72414;BME280;60995;52.154;4.498;2024-02-21T08:51:53;101654.13;;;10.59;100.00
72414;BME280;60995;52.154;4.498;2024-02-21T08:54:09;101643.13;;;10.50;100.00
72414;BME280;60995;52.154;4.498;2024-02-21T08:56:25;101645.88;;;10.61;100.00
72414;BME280;60995;52.154;4.498;2024-02-21T08:58:42;101641.44;;;10.60;100.00
72414;BME280;60995;52.154;4.498;2024-02-21T09:00:58;101635.25;;;10.58;100.00
72414;BME280;60995;52.154;4.498;2024-02-21T09:03:14;101643.19;;;10.72;100.00
72414;BME280;60995;52.154;4.498;2024-02-21T09:05:31;101637.53;;;10.75;100.00
72414;BME280;60995;52.154;4.498;2024-02-21T09:07:47;101635.94;;;10.73;100.00
72414;BME280;60995;52.154;4.498;2024-02-21T09:10:04;101638.31;;;10.89;100.00
72414;BME280;60995;52.154;4.498;2024-02-21T09:12:21;101642.75;;;11.01;100.00
72414;BME280;60995;52.154;4.498;2024-02-21T09:14:38;101630.19;;;11.00;100.00
72414;BME280;60995;52.154;4.498;2024-02-21T09:16:54;101608.78;;;10.84;100.00
72414;BME280;60995;52.154;4.498;2024-02-21T09:19:11;101589.38;;;10.55;100.00
72414;BME280;60995;52.154;4.498;2024-02-21T09:21:28;101595.22;;;10.73;100.00
72414;BME280;60995;52.154;4.498;2024-02-21T09:23:45;101596.31;;;10.82;100.00
72414;BME280;60995;52.154;4.498;2024-02-21T09:26:01;101583.22;;;10.64;100.00
72414;BME280;60995;52.154;4.498;2024-02-21T09:28:20;101582.75;;;10.82;100.00
72414;BME280;60995;52.154;4.498;2024-02-21T09:30:36;101573.88;;;10.80;100.00
72414;BME280;60995;52.154;4.498;2024-02-21T09:32:53;101569.44;;;10.79;100.00
72414;BME280;60995;52.154;4.498;2024-02-21T09:35:10;101550.66;;;10.64;100.00
72414;BME280;60995;52.154;4.498;2024-02-21T09:37:28;101552.63;;;10.73;100.00
72414;BME280;60995;52.154;4.498;2024-02-21T09:39:44;101549.94;;;10.73;100.00
72414;BME280;60995;52.154;4.498;2024-02-21T09:42:07;101589.19;;;11.26;100.00
72414;BME280;60995;52.154;4.498;2024-02-21T09:44:33;101568.47;;;11.02;100.00
72414;BME280;60995;52.154;4.498;2024-02-21T09:47:03;101558.59;;;11.01;100.00
72414;BME280;60995;52.154;4.498;2024-02-21T09:49:31;101537.97;;;10.87;100.00
72414;BME280;60995;52.154;4.498;2024-02-21T09:51:54;101554.63;;;11.17;100.00
72414;BME280;60995;52.154;4.498;2024-02-21T09:54:12;101560.19;;;11.27;100.00
72414;BME280;60995;52.154;4.498;2024-02-21T09:56:30;101550.94;;;11.18;100.00
72414;BME280;60995;52.154;4.498;2024-02-21T09:58:46;101552.69;;;11.19;100.00
72414;BME280;60995;52.154;4.498;2024-02-21T10:01:03;101516.75;;;10.81;100.00
72414;BME280;60995;52.154;4.498;2024-02-21T10:03:22;101519.56;;;10.91;100.00
72414;BME280;60995;52.154;4.498;2024-02-21T10:05:39;101533.78;;;11.17;100.00
72414;BME280;60995;52.154;4.498;2024-02-21T10:08:04;101526.22;;;11.21;100.00
72414;BME280;60995;52.154;4.498;2024-02-21T10:10:21;101524.53;;;11.20;100.00
72414;BME280;60995;52.154;4.498;2024-02-21T10:12:50;101509.09;;;11.09;100.00
72414;BME280;60995;52.154;4.498;2024-02-21T10:15:07;101518.34;;;11.29;100.00
72414;BME280;60995;52.154;4.498;2024-02-21T10:17:24;101505.75;;;11.28;100.00
72414;BME280;60995;52.154;4.498;2024-02-21T10:19:40;101512.63;;;11.44;100.00
72414;BME280;60995;52.154;4.498;2024-02-21T10:22:07;101529.63;;;11.57;100.00
72414;BME280;60995;52.154;4.498;2024-02-21T10:24:27;101502.75;;;11.31;100.00
72414;BME280;60995;52.154;4.498;2024-02-21T10:26:44;101504.75;;;11.29;100.00
72414;BME280;60995;52.154;4.498;2024-02-21T10:29:01;101506.44;;;11.41;100.00
72414;BME280;60995;52.154;4.498;2024-02-21T10:31:23;101491.41;;;11.26;100.00
72414;BME280;60995;52.154;4.498;2024-02-21T10:33:41;101490.91;;;11.21;100.00
72414;BME280;60995;52.154;4.498;2024-02-21T10:36:08;101500.03;;;11.31;100.00
72414;BME280;60995;52.154;4.498;2024-02-21T10:38:26;101500.09;;;11.20;100.00
72414;BME280;60995;52.154;4.498;2024-02-21T10:40:44;101506.97;;;11.24;100.00
72414;BME280;60995;52.154;4.498;2024-02-21T10:43:03;101499.47;;;11.05;100.00
72414;BME280;60995;52.154;4.498;2024-02-21T10:45:23;101484.06;;;10.94;100.00
72414;BME280;60995;52.154;4.498;2024-02-21T10:47:47;101469.00;;;10.79;100.00
72414;BME280;60995;52.154;4.498;2024-02-21T10:50:13;101469.22;;;10.87;100.00
72414;BME280;60995;52.154;4.498;2024-02-21T10:52:47;101455.66;;;10.87;100.00
72414;BME280;60995;52.154;4.498;2024-02-21T10:55:19;101464.06;;;10.95;100.00
72414;BME280;60995;52.154;4.498;2024-02-21T10:57:39;101446.44;;;10.78;100.00
72414;BME280;60995;52.154;4.498;2024-02-21T10:59:58;101438.50;;;10.86;100.00
72414;BME280;60995;52.154;4.498;2024-02-21T11:02:15;101461.31;;;11.06;100.00
72414;BME280;60995;52.154;4.498;2024-02-21T11:04:33;101438.88;;;10.93;100.00
72414;BME280;60995;52.154;4.498;2024-02-21T11:06:52;101427.88;;;10.83;100.00
72414;BME280;60995;52.154;4.498;2024-02-21T11:09:10;101439.22;;;11.00;100.00
72414;BME280;60995;52.154;4.498;2024-02-21T11:11:27;101387.59;;;10.56;100.00
72414;BME280;60995;52.154;4.498;2024-02-21T11:13:44;101397.03;;;10.84;100.00
72414;BME280;60995;52.154;4.498;2024-02-21T11:16:12;101423.16;;;11.19;100.00
72414;BME280;60995;52.154;4.498;2024-02-21T11:18:38;101415.63;;;11.12;100.00
72414;BME280;60995;52.154;4.498;2024-02-21T11:20:54;101433.59;;;11.35;100.00
72414;BME280;60995;52.154;4.498;2024-02-21T11:23:10;101424.44;;;11.36;100.00
72414;BME280;60995;52.154;4.498;2024-02-21T11:25:30;101433.34;;;11.38;100.00
72414;BME280;60995;52.154;4.498;2024-02-21T11:27:48;101436.97;;;11.60;100.00
72414;BME280;60995;52.154;4.498;2024-02-21T11:30:05;101419.47;;;11.53;100.00
72414;BME280;60995;52.154;4.498;2024-02-21T11:32:21;101421.59;;;11.70;100.00
72414;BME280;60995;52.154;4.498;2024-02-21T11:34:38;101408.59;;;11.53;100.00
72414;BME280;60995;52.154;4.498;2024-02-21T11:36:55;101417.63;;;11.74;100.00
72414;BME280;60995;52.154;4.498;2024-02-21T11:39:12;101400.19;;;11.77;100.00
72414;BME280;60995;52.154;4.498;2024-02-21T11:41:28;101387.19;;;11.59;100.00
72414;BME280;60995;52.154;4.498;2024-02-21T11:43:45;101393.47;;;11.60;100.00
72414;BME280;60995;52.154;4.498;2024-02-21T11:46:01;101408.16;;;11.90;100.00
72414;BME280;60995;52.154;4.498;2024-02-21T11:48:21;101403.31;;;11.72;100.00
72414;BME280;60995;52.154;4.498;2024-02-21T11:50:37;101380.50;;;11.64;100.00